createdAt,value
2018-10-07T06:32:48.668Z,5.25
2018-10-07T06:35:17.234Z,4.65
2018-10-07T06:37:45.916Z,3.70
2018-10-07T06:40:14.484Z,4.20
2018-10-07T06:42:43.751Z,3.72
2018-10-07T06:45:13.170Z,2.62
2018-10-07T06:47:43.532Z,5.67
2018-10-07T06:50:12.071Z,2.83
2018-10-07T06:52:40.660Z,4.22
2018-10-07T06:55:09.261Z,2.50
2018-10-07T06:57:37.967Z,4.12
2018-10-07T07:00:07.795Z,4.85
2018-10-07T07:02:37.493Z,2.90
2018-10-07T07:05:06.060Z,2.55
2018-10-07T07:07:34.767Z,2.70
2018-10-07T07:10:03.512Z,1.05
2018-10-07T07:12:32.212Z,1.75
2018-10-07T07:15:00.859Z,2.40
2018-10-07T07:17:29.636Z,3.33
2018-10-07T07:20:03.293Z,2.42
2018-10-07T07:22:31.916Z,4.15
2018-10-07T07:25:00.569Z,2.77
2018-10-07T07:27:29.325Z,1.00
2018-10-07T07:29:57.863Z,2.08
2018-10-07T07:32:29.037Z,1.37
2018-10-07T07:34:59.563Z,2.33
2018-10-07T07:37:28.385Z,3.83
2018-10-07T07:39:58.009Z,2.58
2018-10-07T07:42:27.405Z,2.83
2018-10-07T07:45:01.845Z,2.20
2018-10-07T07:47:33.322Z,1.72
2018-10-07T07:50:02.456Z,4.80
2018-10-07T07:52:31.724Z,1.85
2018-10-07T07:55:03.695Z,2.40
2018-10-07T07:57:34.163Z,3.10
2018-10-07T08:00:03.011Z,1.92
2018-10-07T08:02:31.674Z,3.60
2018-10-07T08:05:00.171Z,2.45
2018-10-07T08:07:34.472Z,1.57
2018-10-07T08:10:03.222Z,3.42
2018-10-07T08:12:31.789Z,4.60
2018-10-07T08:15:00.396Z,2.67
2018-10-07T08:17:29.021Z,2.40
2018-10-07T08:19:58.842Z,2.05
2018-10-07T08:22:31.817Z,1.00
2018-10-07T08:25:00.454Z,2.90
2018-10-07T08:27:29.101Z,2.02
2018-10-07T08:29:57.631Z,3.30
2018-10-07T08:32:26.177Z,1.02
2018-10-07T08:34:54.751Z,0.93
2018-10-07T08:37:23.371Z,10.43
2018-10-07T08:39:52.405Z,3.72
2018-10-07T08:42:20.935Z,3.52
2018-10-07T08:44:49.599Z,2.87
2018-10-07T08:47:18.246Z,2.12
2018-10-07T08:49:46.866Z,1.90
2018-10-07T08:52:15.455Z,1.12
2018-10-07T08:54:43.994Z,2.25
2018-10-07T08:57:12.628Z,3.60
2018-10-07T08:59:41.242Z,1.82
2018-10-07T09:02:09.839Z,2.05
2018-10-07T09:04:38.267Z,1.27
2018-10-07T09:07:06.849Z,1.75
2018-10-07T09:09:35.719Z,3.83
2018-10-07T09:12:04.434Z,2.22
2018-10-07T09:14:33.035Z,1.47
2018-10-07T09:17:01.678Z,2.52
2018-10-07T09:19:30.182Z,2.08
2018-10-07T09:21:58.924Z,2.67
2018-10-07T09:24:27.478Z,1.98
2018-10-07T09:26:56.255Z,2.33
2018-10-07T09:29:24.657Z,3.00
2018-10-07T09:31:53.226Z,2.17
2018-10-07T09:34:21.863Z,1.37
2018-10-07T09:36:50.586Z,1.55
2018-10-07T09:39:19.960Z,1.77
2018-10-07T09:41:49.119Z,2.80
2018-10-07T09:44:18.930Z,2.12
2018-10-07T09:46:47.891Z,2.22
2018-10-07T09:49:16.535Z,2.40
2018-10-07T09:51:45.090Z,2.00
2018-10-07T09:54:14.536Z,2.02
2018-10-07T09:56:43.090Z,2.95
2018-10-07T09:59:11.599Z,3.92
2018-10-07T10:01:40.168Z,2.80
2018-10-07T10:04:08.782Z,3.20
2018-10-07T10:06:37.386Z,2.27
2018-10-07T10:09:08.239Z,2.40
2018-10-07T10:11:36.773Z,1.85
2018-10-07T10:14:05.562Z,3.22
2018-10-07T10:16:40.322Z,4.80
2018-10-07T10:19:14.228Z,2.42
2018-10-07T10:21:46.530Z,2.05
2018-10-07T10:25:20.585Z,2.98
2018-10-07T10:27:57.542Z,2.87
2018-10-07T10:30:50.052Z,1.92
2018-10-07T10:33:25.363Z,2.70
2018-10-07T10:35:56.531Z,1.55
2018-10-07T10:38:32.573Z,2.02
2018-10-07T10:41:07.982Z,2.90
2018-10-07T10:43:48.762Z,2.17
2018-10-07T10:46:23.242Z,2.52
2018-10-07T10:51:08.133Z,2.83
2018-10-07T10:53:46.665Z,2.50
2018-10-07T10:56:23.700Z,2.50
2018-10-07T11:01:07.226Z,2.10
2018-10-07T11:04:45.618Z,2.05
2018-10-07T11:07:24.545Z,2.00
2018-10-07T11:11:05.096Z,2.08
2018-10-07T11:15:47.767Z,2.30
2018-10-07T11:19:24.106Z,1.07
2018-10-07T11:21:58.794Z,2.02
2018-10-07T11:24:38.304Z,2.55
2018-10-07T11:27:30.093Z,1.85
2018-10-07T11:30:07.553Z,1.40
2018-10-07T11:32:54.273Z,2.87
2018-10-07T11:35:35.907Z,3.12
2018-10-07T11:39:09.269Z,2.27
2018-10-07T11:42:15.319Z,2.10
2018-10-07T11:45:51.578Z,3.87
2018-10-07T11:49:05.135Z,2.40
2018-10-07T11:51:58.870Z,1.50
2018-10-07T11:55:34.431Z,2.47
2018-10-07T11:58:03.114Z,2.83
2018-10-07T12:00:31.665Z,3.15
2018-10-07T12:03:00.220Z,3.58
2018-10-07T12:05:28.742Z,4.40
2018-10-07T12:07:57.406Z,2.37
2018-10-07T12:10:25.961Z,2.87
2018-10-07T12:12:54.552Z,2.55
2018-10-07T12:15:23.739Z,2.17
2018-10-07T12:17:52.390Z,4.58
2018-10-07T12:20:21.975Z,2.37
2018-10-07T12:22:50.490Z,3.20
2018-10-07T12:25:19.043Z,3.65
2018-10-07T12:27:47.727Z,1.98
2018-10-07T12:30:16.409Z,2.85
2018-10-07T12:32:44.969Z,2.90
2018-10-07T12:35:13.511Z,2.10
2018-10-07T12:37:42.196Z,3.27
2018-10-07T12:40:10.739Z,3.60
2018-10-07T12:42:39.326Z,4.58
2018-10-07T12:45:07.883Z,2.08
2018-10-07T12:47:36.469Z,3.62
2018-10-07T12:50:05.858Z,1.85
2018-10-07T12:52:36.261Z,2.20
2018-10-07T12:55:05.719Z,3.72
2018-10-07T12:57:34.470Z,4.15
2018-10-07T13:00:03.142Z,4.05
2018-10-07T13:02:31.701Z,3.52
2018-10-07T13:05:00.910Z,2.20
2018-10-07T13:07:29.579Z,2.15
2018-10-07T13:09:58.111Z,3.25
2018-10-07T13:12:26.639Z,2.35
2018-10-07T13:14:55.154Z,2.98
2018-10-07T13:17:23.762Z,5.08
2018-10-07T13:19:53.152Z,3.90
2018-10-07T13:22:21.727Z,3.22
2018-10-07T13:24:50.251Z,3.12
2018-10-07T13:27:18.981Z,5.58
2018-10-07T13:29:48.992Z,3.12
2018-10-07T13:32:17.608Z,4.97
2018-10-07T13:34:47.044Z,2.83
2018-10-07T13:37:15.675Z,3.25
2018-10-07T13:39:45.033Z,4.10
2018-10-07T13:42:13.779Z,2.75
2018-10-07T13:44:42.511Z,7.50
2018-10-07T13:47:33.663Z,4.35
2018-10-07T13:50:02.297Z,2.52
2018-10-07T13:52:30.911Z,2.05
2018-10-07T13:54:59.590Z,3.27
2018-10-07T13:57:28.434Z,3.90
2018-10-07T13:59:57.026Z,2.62
2018-10-07T14:02:25.678Z,3.50
2018-10-07T14:04:55.800Z,5.50
2018-10-07T14:07:24.494Z,3.30
2018-10-07T14:09:53.013Z,2.47
2018-10-07T14:12:21.616Z,2.72
2018-10-07T14:14:50.337Z,2.70
2018-10-07T14:17:20.054Z,2.02
2018-10-07T14:19:48.658Z,2.35
2018-10-07T14:22:17.341Z,2.58
2018-10-07T14:24:46.544Z,2.22
2018-10-07T14:27:15.372Z,3.87
2018-10-07T14:29:43.998Z,3.60
2018-10-07T14:32:12.597Z,2.90
2018-10-07T14:34:41.266Z,2.83
2018-10-07T14:37:10.175Z,4.72
2018-10-07T14:39:38.929Z,4.47
2018-10-07T14:42:12.051Z,2.95
2018-10-07T14:44:41.779Z,3.45
2018-10-07T14:47:10.493Z,4.15
2018-10-07T14:49:39.844Z,2.30
2018-10-07T14:52:09.456Z,3.40
2018-10-07T14:54:38.063Z,4.03
2018-10-07T14:57:06.816Z,4.25
2018-10-07T14:59:35.473Z,2.83
2018-10-07T15:02:04.067Z,2.60
2018-10-07T15:04:32.695Z,2.15
2018-10-07T15:07:01.881Z,3.70
2018-10-07T15:09:30.440Z,3.25
2018-10-07T15:11:59.105Z,3.12
2018-10-07T15:14:27.800Z,4.25
2018-10-07T15:16:56.562Z,4.30
2018-10-07T15:19:25.127Z,3.12
2018-10-07T15:21:53.877Z,2.87
2018-10-07T15:24:23.006Z,3.42
2018-10-07T15:26:51.678Z,4.92
2018-10-07T15:29:20.705Z,2.98
2018-10-07T15:31:49.345Z,3.30
2018-10-07T15:34:18.046Z,3.80
2018-10-07T15:36:46.746Z,5.33
2018-10-07T15:39:15.305Z,5.28
2018-10-07T15:41:44.018Z,4.10
2018-10-07T15:44:12.792Z,3.70
2018-10-07T15:46:41.509Z,2.95
2018-10-07T15:49:10.098Z,3.80
2018-10-07T15:51:39.646Z,4.33
2018-10-07T15:54:08.160Z,3.85
2018-10-07T15:56:36.742Z,3.55
2018-10-07T15:59:05.256Z,3.87
2018-10-07T16:01:33.744Z,5.40
2018-10-07T16:04:02.407Z,4.80
2018-10-07T16:06:31.005Z,5.37
2018-10-07T16:08:59.753Z,5.53
2018-10-07T16:11:28.837Z,6.17
2018-10-07T16:13:58.212Z,3.35
2018-10-07T16:16:27.858Z,4.25
2018-10-07T16:18:57.082Z,3.15
2018-10-07T16:21:25.741Z,4.12
2018-10-07T16:23:55.150Z,2.98
2018-10-07T16:26:23.500Z,3.95
2018-10-07T16:28:52.728Z,3.92
2018-10-07T16:31:22.373Z,5.47
2018-10-07T16:33:50.973Z,3.45
2018-10-07T16:36:19.685Z,6.50
2018-10-07T16:38:48.339Z,2.67
2018-10-07T16:41:16.824Z,4.30
2018-10-07T16:43:46.159Z,4.08
2018-10-07T16:46:14.774Z,6.25
2018-10-07T16:48:43.367Z,5.67
2018-10-07T16:51:11.604Z,4.62
2018-10-07T16:53:40.180Z,3.90
2018-10-07T16:56:09.238Z,5.25
2018-10-07T16:58:37.757Z,4.62
2018-10-07T17:01:06.979Z,5.45
2018-10-07T17:03:35.705Z,6.37
2018-10-07T17:06:04.766Z,6.17
2018-10-07T17:08:33.306Z,5.87
2018-10-07T17:11:02.704Z,7.03
2018-10-07T17:13:32.460Z,6.10
2018-10-07T17:16:01.062Z,7.53
2018-10-07T17:18:29.665Z,8.40
2018-10-07T17:20:59.826Z,8.55
2018-10-07T17:23:28.356Z,6.08
2018-10-07T17:25:56.916Z,7.72
2018-10-07T17:28:26.382Z,6.28
2018-10-07T17:30:56.097Z,6.62
2018-10-07T17:33:24.719Z,5.70
2018-10-07T17:35:53.260Z,5.17
2018-10-07T17:38:21.815Z,6.67
2018-10-07T17:40:50.399Z,5.58
2018-10-07T17:43:19.058Z,6.62
2018-10-07T17:45:47.680Z,5.47
2018-10-07T17:48:16.218Z,4.47
2018-10-07T17:50:44.783Z,4.17
2018-10-07T17:53:14.308Z,5.62
2018-10-07T17:55:42.842Z,9.18
2018-10-07T17:58:12.173Z,6.15
2018-10-07T18:00:41.321Z,4.83
2018-10-07T18:03:09.938Z,6.35
2018-10-07T18:05:38.455Z,6.05
2018-10-07T18:08:07.054Z,4.55
2018-10-07T18:10:35.812Z,6.12
2018-10-07T18:13:04.302Z,6.35
2018-10-07T18:15:32.867Z,3.70
2018-10-07T18:18:01.430Z,3.90
2018-10-07T18:20:29.989Z,9.78
2018-10-07T18:22:58.563Z,7.65
2018-10-07T18:25:27.148Z,4.22
2018-10-07T18:27:55.863Z,6.05
2018-10-07T18:30:24.473Z,6.22
2018-10-07T18:32:53.009Z,7.22
2018-10-07T18:35:21.567Z,5.00
2018-10-07T18:37:50.293Z,7.33
2018-10-07T18:40:18.825Z,7.20
2018-10-07T18:42:47.231Z,6.83
2018-10-07T18:45:15.827Z,6.50
2018-10-07T18:47:44.390Z,6.55
2018-10-07T18:50:12.898Z,6.70
2018-10-07T18:52:41.370Z,9.55
2018-10-07T18:55:09.892Z,5.67
2018-10-07T18:57:38.482Z,8.50
2018-10-07T19:00:08.802Z,5.67
2018-10-07T19:02:37.472Z,6.62
2018-10-07T19:05:05.954Z,11.10
2018-10-07T19:07:35.477Z,8.23
2018-10-07T19:10:04.255Z,9.33
2018-10-07T19:12:32.729Z,7.47
2018-10-07T19:15:01.354Z,8.03
2018-10-07T19:17:29.963Z,11.88
2018-10-07T19:19:58.527Z,7.92
2018-10-07T19:22:27.056Z,7.70
2018-10-07T19:24:55.565Z,8.10
2018-10-07T19:27:24.159Z,10.63
2018-10-07T19:29:52.752Z,7.15
2018-10-07T19:32:21.268Z,9.35
2018-10-07T19:34:49.759Z,7.70
2018-10-07T19:37:18.400Z,10.30
2018-10-07T19:39:46.871Z,10.32
2018-10-07T19:42:15.386Z,10.15
2018-10-07T19:44:43.883Z,10.32
2018-10-07T19:47:12.535Z,9.35
2018-10-07T19:49:41.094Z,9.00
2018-10-07T19:52:09.655Z,10.68
2018-10-07T19:54:38.152Z,8.98
2018-10-07T19:57:06.832Z,8.18
2018-10-07T19:59:35.490Z,9.20
2018-10-07T20:02:04.066Z,9.63
2018-10-07T20:04:32.624Z,10.40
2018-10-07T20:07:01.341Z,11.10
2018-10-07T20:09:29.932Z,6.95
2018-10-07T20:11:58.450Z,9.83
2018-10-07T20:14:26.980Z,12.35
2018-10-07T20:16:55.501Z,10.97
2018-10-07T20:19:24.399Z,12.98
2018-10-07T20:21:53.256Z,7.83
2018-10-07T20:24:21.873Z,13.53
2018-10-07T20:26:50.504Z,10.88
2018-10-07T20:29:19.370Z,9.30
2018-10-07T20:31:47.942Z,10.65
2018-10-07T20:34:16.765Z,14.35
2018-10-07T20:36:45.704Z,11.20
2018-10-07T20:39:14.527Z,9.85
2018-10-07T20:41:43.473Z,9.15
2018-10-07T20:44:13.710Z,10.75
2018-10-07T20:46:42.298Z,11.22
2018-10-07T20:49:10.944Z,11.12
2018-10-07T20:51:39.523Z,14.18
2018-10-07T20:54:08.740Z,12.07
2018-10-07T20:56:37.412Z,9.93
2018-10-07T20:59:06.221Z,13.72
2018-10-07T21:01:34.896Z,9.95
2018-10-07T21:04:06.523Z,12.00
2018-10-07T21:06:36.759Z,9.93
2018-10-07T21:09:08.490Z,10.10
2018-10-07T21:11:37.762Z,12.18
2018-10-07T21:14:06.822Z,12.47
2018-10-07T21:16:35.609Z,10.00
2018-10-07T21:19:04.165Z,11.08
2018-10-07T21:21:32.679Z,14.03
2018-10-07T21:24:01.589Z,12.82
2018-10-07T21:26:30.202Z,12.75
2018-10-07T21:28:58.720Z,14.73
2018-10-07T21:31:27.311Z,14.18
2018-10-07T21:33:55.885Z,12.53
2018-10-07T21:36:24.593Z,11.25
2018-10-07T21:38:53.166Z,12.10
2018-10-07T21:41:21.761Z,11.48
2018-10-07T21:43:50.533Z,12.10
2018-10-07T21:46:19.152Z,11.53
2018-10-07T21:48:47.590Z,11.10
